AirNav   Bose Proflight or Bose A20?
 
 1226 users online  

KBNG Banning Municipal Airport
Banning, California, USA

GOING TO BANNING?


FAA INFORMATION EFFECTIVE 23 MAY 2019

Location

FAA Identifier: BNG
Lat/Long: 33-55-21.2000N / 116-51-03.5000W
33-55.353333N / 116-51.058333W
33.9225556 / -116.8509722
(estimated)
Elevation: 2222.4 ft. / 677.4 m (surveyed)
Variation: 14E (1985)
From city: 1 mile SE of BANNING, CA
Time zone: UTC -7 (UTC -8 during Standard Time)
Zip code: 92220

Airport Operations

Airport use: Open to the public
Activation date: 04/1940
Control tower: no
ARTCC: LOS ANGELES CENTER
FSS: RIVERSIDE FLIGHT SERVICE STATION
NOTAMs facility: RAL (NOTAM-D service available)
Attendance: TUES-FRI 0900-1530
FOR ARPT ATTENDANT CALL (951) 922-3320.
Wind indicator: lighted
Segmented circle: yes
Lights: ACTVT MIRL RWY 08/26 - CTAF.
Beacon: white-green (lighted land airport)
Operates sunset to sunrise.

Airport Communications

CTAF/UNICOM: 122.8
WX AWOS-3: 134.625 (951-922-4674)
WX AWOS-3 at HMT (14 nm SW): 118.375 (951-925-6886)
WX ASOS at PSP (18 nm E): PHONE 760-322-7597

Nearby radio navigation aids

VOR radial/distance  VOR name  Freq  Var
HDFr048/(18.8)HOMELAND VOR113.4014E
PSPr266/21.2PALM SPRINGS VORTAC115.5013E
RALr080/(29.9)RIVERSIDE VOR112.4014E
PDZr075/33.8PARADISE VORTAC112.2015E
TRMr284/38.7THERMAL VORTAC116.2013E

Airport Services

Fuel available: 100LL
FUEL AVBL WITH 24 HR SELF SVC CREDIT CARD. FUEL APN NOT LEVEL AND ACFT MAY NOT FILL COMPLETELY.
Parking: tiedowns
Airframe service: NONE
Powerplant service: NONE
Bottled oxygen: NONE
Bulk oxygen: NONE

Runway Information

Runway 8/26

Dimensions: 4955 x 100 ft. / 1510 x 30 m
Surface: asphalt, in fair condition
Weight bearing capacity: 
Single wheel: 12.5
Runway edge lights: medium intensity
Gradient: WEST
RUNWAY 8  RUNWAY 26
Latitude: 33-55.356430N33-55.349927N
Longitude: 116-51.548577W116-50.568532W
Elevation: 2222.4 ft.2103.8 ft.
Traffic pattern: leftright
Markings: basic, in fair conditionbasic, in fair condition
Visual slope indicator: 2-light PAPI on left (3.50 degrees glide path)
Touchdown point: yes, no lightsyes, no lights

Airport Ownership and Management from official FAA records

Ownership: Publicly-owned
Owner: CITY OF BANNING
P.O. BOX 998
BANNING, CA 92220
Phone (951) 922-3105
Manager: CARL SZOYKA
176 EAST LINCOLN STREET, PO BOX 998
BANNING, CA 92220-0998
Phone 951-922-3286

Airport Operational Statistics

Aircraft based on the field: 15
Single engine airplanes: 15
    
Aircraft operations: avg 69/week *
80% transient general aviation
20% local general aviation
* for 12-month period ending 31 March 2018

Additional Remarks

NO INTERSECTION TAKEOFFS TO THE WEST.
RY 08/26 NO STRAIGHT-IN LANDINGS.
RWY 26 AFTER TAKEOFF AVOID OVERFLYING HOUSES 4 MILES WEST.

Instrument Procedures

There are no published instrument procedures at KBNG.

Some nearby airports with instrument procedures:

KHMT - Hemet-Ryan Airport (14 nm SW)
KREI - Redlands Municipal Airport (18 nm NW)
KPSP - Palm Springs International Airport (18 nm E)
KRIV - March Air Reserve Base (20 nm W)
L35 - Big Bear City Airport (20 nm N)
 
Loc | Ops | Rwys | IFR | FBO | Links
Com | Nav | Svcs | Stats | Notes

San Bernardino International Airport Authority
 
Area around KBNG (Banning Municipal Airport)
 
Road maps at: MapQuest Bing Google
 
Aerial photo
WARNING: Photo may not be current or correct
Aerial photo of KBNG (Banning Municipal Airport)
Photo taken 30-Oct-2013
looking southwest.

Do you have a better or more recent aerial photo of Banning Municipal Airport that you would like to share? If so, please send us your photo.

 
Sectional chart

 
Airport distance calculator
Flying to Banning Municipal Airport? Find the distance to fly.

From to KBNG

Sunrise and sunset
Times for 18-Jun-2019
 Local
(UTC-7)
 Zulu
(UTC)
Morning civil twilight05:0812:08
Sunrise05:3712:37
Sunset20:0003:00
Evening civil twilight20:2903:29

Current date and time
Zulu (UTC)  18-Jun-2019 21:44:10
Local (UTC-7)  18-Jun-2019 14:44:10
 
METAR
KREI 
18nm NW 
SuperAWOS
182055Z AUTO VRB05KT 10SM 26/13 A2995
KPSP 
19nm E 
182053Z 12008KT 10SM CLR 37/12 A2982 RMK AO2 SLP094 T03720122 58016
KL35 
20nm N 
182135Z AUTO 34003KT 10SM CLR 22/00 A3021 RMK AO2
KRIV 
21nm W 
182058Z AUTO 30010KT 10SM FEW150 FEW180 FEW200 26/14 A2995 RMK AO2 SLP132 T02570142 58005
KSBD 
22nm NW 
182048Z 26008KT 4SM HZ FEW080 28/12 A2994
KF70 
25nm SW 
182135Z AUTO 22010KT 10SM CLR 23/14 A2995 RMK AO1
KRAL 
30nm W 
182053Z 28008G17KT 9SM CLR 26/14 A2994 RMK AO2 SLP125 T02560144 58009
TAF
KPSP 
19nm E 
181730Z 1818/1918 11008KT P6SM SKC FM190100 33011KT P6SM SKC FM190600 VRB04KT P6SM SKC
KRIV 
21nm W 
182000Z 1820/2002 30009KT 9999 SKC QNH2992INS TEMPO 1821/1901 30012G18KT BECMG 1903/1904 30006KT 9999 SKC QNH2994INS BECMG 1907/1908 VRB04KT 6000 BR OVC005 QNH2996INS BECMG 1914/1915 VRB04KT 9000 BR OVC008 QNH2992INS BECMG 1915/1916 30006KT 9999 NSW FEW012 QNH2993INS BECMG 1919/1920 30009KT 9999 SKC QNH2988INS TEMPO 1921/2001 30012G18KT TX29/1822Z TN14/1908Z
KSBD 
22nm NW 
181730Z 1818/1918 24005KT 5SM HZ SKC FM182000 26010KT P6SM SKC FM190400 25005KT P6SM SCT015 FM191000 VRB04KT P6SM OVC010 FM191300 VRB03KT 3SM HZ OVC009 FM191600 VRB03KT 5SM HZ SCT015
NOTAMs
Click for the latest NOTAMs
NOTAMs are issued by the DoD/FAA and will open in a separate window not controlled by AirNav.

 

 
 

FBO, Fuel Providers, and Aircraft Ground Support

  
 Business Name 
 
 Contact 
 
 Services / Description 
 
Fuel Prices
 
Comments
  
City of Banning 951-922-3320
no information available

If you are affiliated with City of Banning and would like to show here your services, contact info, web link, logo, and more, click here
100LL
PS $4.67 
 Updated 31-May-2019
 
   1 read write
PS=Pump service
Update Fuel Prices
 

Would you like to see your business listed on this page?

 If your business provides an interesting product or service to pilots, flight crews, aircraft, or users of the Banning Municipal Airport, you should consider listing it here.  To start the listing process, click on the button below
 
Add a business
 

Other Pages about Banning Municipal Airport

www.ci.banning.ca.us/...
 
Update a link
 
Copyright © AirNav, LLC. All rights reserved. Privacy Policy  Contact